Versailles, Illinois
Current Conditions -  °F | °C
As of 1:55 AM on Wednesday 26 Nov 2014 (Local Time) from KPPQ Reporting Station
Clear Clear  
Wind Chill: 23°   Ceiling: Unl
Heat Index: 28°   Visibility: 10mi
Dew Point: 24°   Wind: 5mph
Humidity: 83%   Direction: 140°SE
Pressure: 30.1"   Gusts: NA
Location:  39.89°N, 90.66°W
Report Text: KPPQ 260755Z AUTO 14004KT 10SM CLR M02/M04 A3010 RMK AO2 T10201045 PWINO
Loading
Personal Weather Stations






























Interactive Weather Map New forecast layout! Learn more

10-Day Weather Forecast

Advertisements
Track Severe Weather on mobile